createdAt,value
2023-03-17T00:03:06.022Z,21.50
2023-03-17T00:05:58.402Z,21.48
2023-03-17T00:08:46.553Z,21.45
2023-03-17T00:11:33.546Z,21.44
2023-03-17T00:14:20.329Z,21.44
2023-03-17T00:17:11.959Z,21.43
2023-03-17T00:19:58.872Z,21.45
2023-03-17T00:22:46.405Z,21.46
2023-03-17T00:25:34.651Z,21.48
2023-03-17T00:28:24.722Z,21.50
2023-03-17T00:31:26.234Z,21.53
2023-03-17T00:34:15.735Z,21.56
2023-03-17T00:37:04.421Z,21.58
2023-03-17T00:39:51.636Z,21.62
2023-03-17T00:42:39.353Z,21.64
2023-03-17T00:45:28.333Z,21.67
2023-03-17T00:48:21.626Z,21.70
2023-03-17T00:51:09.534Z,21.73
2023-03-17T00:53:57.263Z,21.76
2023-03-17T00:56:46.108Z,21.78
2023-03-17T00:59:40.515Z,21.81
2023-03-17T01:02:31.113Z,21.82
2023-03-17T01:05:19.356Z,21.84
2023-03-17T01:08:06.583Z,21.86
2023-03-17T01:10:53.288Z,21.88
2023-03-17T01:13:40.616Z,21.88
2023-03-17T01:16:28.406Z,21.89
2023-03-17T01:19:16.889Z,21.89
2023-03-17T01:22:04.857Z,21.88
2023-03-17T01:24:51.747Z,21.87
2023-03-17T01:27:39.776Z,21.86
2023-03-17T01:30:38.573Z,21.85
2023-03-17T01:33:25.901Z,21.85
2023-03-17T01:36:13.328Z,21.83
2023-03-17T01:39:00.545Z,21.82
2023-03-17T01:41:47.579Z,21.81
2023-03-17T01:44:34.475Z,21.80
2023-03-17T01:47:23.858Z,21.78
2023-03-17T01:50:11.377Z,21.77
2023-03-17T01:52:59.416Z,21.75
2023-03-17T01:55:48.594Z,21.73
2023-03-17T01:58:36.425Z,21.72
2023-03-17T02:01:29.279Z,21.70
2023-03-17T02:04:18.638Z,21.67
2023-03-17T02:07:06.204Z,21.65
2023-03-17T02:09:55.458Z,21.63
2023-03-17T02:12:44.406Z,21.61
2023-03-17T02:15:47.012Z,21.58
2023-03-17T02:18:34.330Z,21.56
2023-03-17T02:21:46.409Z,21.53
2023-03-17T02:24:36.482Z,21.50
2023-03-17T02:27:27.928Z,21.47
2023-03-17T02:30:19.341Z,21.44
2023-03-17T02:33:06.101Z,21.41
2023-03-17T02:35:53.603Z,21.38
2023-03-17T02:38:41.405Z,21.35
2023-03-17T02:41:28.815Z,21.32
2023-03-17T02:44:16.175Z,21.29
2023-03-17T02:47:03.696Z,21.25
2023-03-17T02:49:51.327Z,21.23
2023-03-17T02:52:37.915Z,21.20
2023-03-17T02:55:24.640Z,21.21
2023-03-17T02:58:11.874Z,21.21
2023-03-17T03:00:58.776Z,21.22
2023-03-17T03:03:46.084Z,21.23
2023-03-17T03:06:33.542Z,21.25
2023-03-17T03:09:21.243Z,21.28
2023-03-17T03:12:10.223Z,21.31
2023-03-17T03:14:56.878Z,21.35
2023-03-17T03:17:43.944Z,21.38
2023-03-17T03:20:31.020Z,21.41
2023-03-17T03:23:18.889Z,21.44
2023-03-17T03:26:05.749Z,21.47
2023-03-17T03:28:52.519Z,21.50
2023-03-17T03:31:39.736Z,21.53
2023-03-17T03:34:27.981Z,21.57
2023-03-17T03:37:14.930Z,21.59
2023-03-17T03:40:02.332Z,21.62
2023-03-17T03:42:49.229Z,21.64
2023-03-17T03:45:36.134Z,21.66
2023-03-17T03:48:22.955Z,21.67
2023-03-17T03:51:09.565Z,21.68
2023-03-17T03:53:56.370Z,21.69
2023-03-17T03:56:43.074Z,21.70
2023-03-17T03:59:30.592Z,21.70
2023-03-17T04:02:17.479Z,21.70
2023-03-17T04:05:05.994Z,21.70
2023-03-17T04:07:53.063Z,21.70
2023-03-17T04:10:40.319Z,21.70
2023-03-17T04:13:27.219Z,21.69
2023-03-17T04:16:13.973Z,21.69
2023-03-17T04:19:01.777Z,21.68
2023-03-17T04:21:49.710Z,21.66
2023-03-17T04:24:36.376Z,21.65
2023-03-17T04:27:23.626Z,21.64
2023-03-17T04:30:17.036Z,21.63
2023-03-17T04:33:04.178Z,21.60
2023-03-17T04:35:51.545Z,21.59
2023-03-17T04:38:38.668Z,21.56
2023-03-17T04:41:25.878Z,21.54
2023-03-17T04:44:12.786Z,21.52
2023-03-17T04:46:59.399Z,21.50
2023-03-17T04:49:46.825Z,21.47
2023-03-17T04:52:34.241Z,21.45
2023-03-17T04:55:21.368Z,21.42
2023-03-17T04:58:10.334Z,21.40
2023-03-17T05:00:59.257Z,21.38
2023-03-17T05:03:46.310Z,21.35
2023-03-17T05:06:33.428Z,21.32
2023-03-17T05:09:20.053Z,21.29
2023-03-17T05:12:08.804Z,21.25
2023-03-17T05:14:55.697Z,21.22
2023-03-17T05:17:42.719Z,21.20
2023-03-17T05:20:29.413Z,21.17
2023-03-17T05:23:16.746Z,21.13
2023-03-17T05:26:04.279Z,21.11
2023-03-17T05:28:51.295Z,21.08
2023-03-17T05:31:38.613Z,21.06
2023-03-17T05:34:26.060Z,21.05
2023-03-17T05:37:13.274Z,21.03
2023-03-17T05:40:00.295Z,21.02
2023-03-17T05:42:47.712Z,21.00
2023-03-17T05:45:34.847Z,20.98
2023-03-17T05:48:22.919Z,20.97
2023-03-17T05:51:09.748Z,20.95
2023-03-17T05:53:56.888Z,20.93
2023-03-17T05:56:43.810Z,20.91
2023-03-17T05:59:31.351Z,20.89
2023-03-17T06:02:18.684Z,20.86
2023-03-17T06:05:06.519Z,20.84
2023-03-17T06:07:56.346Z,20.81
2023-03-17T06:10:43.701Z,20.78
2023-03-17T06:13:30.960Z,20.76
2023-03-17T06:16:18.051Z,20.74
2023-03-17T06:19:05.029Z,20.73
2023-03-17T06:21:52.473Z,20.72
2023-03-17T06:24:39.305Z,20.70
2023-03-17T06:27:26.384Z,20.70
2023-03-17T06:30:14.256Z,20.70
2023-03-17T06:33:02.250Z,20.71
2023-03-17T06:35:49.382Z,20.72
2023-03-17T06:38:36.933Z,20.73
2023-03-17T06:41:24.000Z,20.73
2023-03-17T06:44:11.209Z,20.75
2023-03-17T06:46:58.495Z,20.77
2023-03-17T06:49:45.186Z,20.78
2023-03-17T06:52:32.417Z,20.80
2023-03-17T06:55:19.750Z,20.81
2023-03-17T06:58:06.562Z,20.83
2023-03-17T07:00:54.255Z,20.85
2023-03-17T07:03:44.064Z,20.87
2023-03-17T07:06:31.193Z,20.89
2023-03-17T07:09:18.415Z,20.91
2023-03-17T07:12:06.247Z,20.92
2023-03-17T07:14:53.168Z,20.95
2023-03-17T07:17:41.974Z,20.97
2023-03-17T07:20:29.161Z,21.00
2023-03-17T07:23:23.056Z,21.02
2023-03-17T07:26:10.663Z,21.04
2023-03-17T07:28:57.763Z,21.07
2023-03-17T07:31:46.012Z,21.08
2023-03-17T07:34:33.549Z,21.10
2023-03-17T07:37:21.992Z,21.13
2023-03-17T07:40:10.439Z,21.15
2023-03-17T07:42:57.654Z,21.18
2023-03-17T07:45:46.987Z,21.20
2023-03-17T07:48:37.821Z,21.22
2023-03-17T07:51:28.092Z,21.25
2023-03-17T07:54:16.060Z,21.28
2023-03-17T07:57:03.954Z,21.30
2023-03-17T07:59:51.659Z,21.33
2023-03-17T08:02:39.290Z,21.35
2023-03-17T08:05:26.375Z,21.38
2023-03-17T08:08:13.497Z,21.40
2023-03-17T08:11:05.530Z,21.42
2023-03-17T08:13:52.438Z,21.45
2023-03-17T08:16:39.092Z,21.48
2023-03-17T08:19:26.401Z,21.50
2023-03-17T08:22:13.286Z,21.53
2023-03-17T08:25:00.411Z,21.55
2023-03-17T08:27:47.445Z,21.58
2023-03-17T08:30:35.117Z,21.61
2023-03-17T08:33:23.006Z,21.64
2023-03-17T08:36:11.649Z,21.68
2023-03-17T08:38:59.255Z,21.72
2023-03-17T08:41:47.076Z,21.76
2023-03-17T08:44:34.527Z,21.82
2023-03-17T08:47:22.059Z,21.89
2023-03-17T08:50:14.916Z,21.96
2023-03-17T08:53:02.250Z,22.01
2023-03-17T08:55:48.936Z,22.04
2023-03-17T08:58:37.787Z,22.08
2023-03-17T09:01:25.113Z,22.11
2023-03-17T09:04:11.932Z,22.14
2023-03-17T09:07:03.834Z,22.16
2023-03-17T09:09:51.092Z,22.19
2023-03-17T09:12:38.333Z,22.21
2023-03-17T09:15:25.438Z,22.25
2023-03-17T09:18:13.155Z,22.30
2023-03-17T09:21:00.489Z,22.33
2023-03-17T09:23:47.607Z,22.36
2023-03-17T09:26:34.303Z,22.39
2023-03-17T09:29:21.423Z,22.42
2023-03-17T09:32:08.979Z,22.44
2023-03-17T09:34:56.483Z,22.44
2023-03-17T09:37:43.816Z,22.47
2023-03-17T09:40:35.971Z,22.51
2023-03-17T09:44:03.731Z,22.53
2023-03-17T09:47:14.595Z,22.56
2023-03-17T09:50:04.460Z,22.58
2023-03-17T09:52:55.373Z,22.61
2023-03-17T09:55:44.173Z,22.63
2023-03-17T09:58:35.862Z,22.66
2023-03-17T10:01:23.374Z,22.69
2023-03-17T10:04:12.163Z,22.71
2023-03-17T10:07:04.717Z,22.74
2023-03-17T10:10:12.622Z,22.75
2023-03-17T10:13:17.946Z,22.75
2023-03-17T10:16:28.674Z,22.76
2023-03-17T10:19:27.889Z,22.77
2023-03-17T10:22:48.949Z,22.77
2023-03-17T10:25:37.626Z,22.78
2023-03-17T10:28:30.016Z,22.78
2023-03-17T10:31:21.485Z,22.77
2023-03-17T10:34:21.875Z,22.76
2023-03-17T10:37:18.829Z,22.75
2023-03-17T10:40:10.594Z,22.75
2023-03-17T10:43:05.632Z,22.74
2023-03-17T10:46:01.023Z,22.74
2023-03-17T10:48:58.389Z,22.74
2023-03-17T10:51:46.995Z,22.77
2023-03-17T10:54:37.327Z,22.80
2023-03-17T10:57:24.497Z,22.82
2023-03-17T11:00:20.147Z,22.83
2023-03-17T11:03:24.738Z,22.83
2023-03-17T11:06:17.398Z,22.82
2023-03-17T11:09:21.403Z,22.82
2023-03-17T11:12:19.991Z,22.80
2023-03-17T11:15:15.924Z,22.77
2023-03-17T11:18:18.817Z,22.75
2023-03-17T11:21:19.709Z,22.73
2023-03-17T11:24:26.442Z,22.70
2023-03-17T11:27:35.876Z,22.68
2023-03-17T11:30:38.650Z,22.66
2023-03-17T11:33:31.609Z,22.64
2023-03-17T11:36:30.382Z,22.62
2023-03-17T11:39:26.550Z,22.61
2023-03-17T11:42:32.080Z,22.60
2023-03-17T11:45:38.384Z,22.57
2023-03-17T11:48:35.305Z,22.56
2023-03-17T11:51:30.507Z,22.54
2023-03-17T11:54:38.820Z,22.53
2023-03-17T11:57:32.393Z,22.51
2023-03-17T12:00:28.131Z,22.49
2023-03-17T12:03:31.393Z,22.47
2023-03-17T12:06:26.186Z,22.46
2023-03-17T12:09:31.718Z,22.44
2023-03-17T12:12:28.506Z,22.42
2023-03-17T12:15:27.177Z,22.41
2023-03-17T12:18:17.289Z,22.40
2023-03-17T12:21:23.031Z,22.38
2023-03-17T12:24:13.020Z,22.36
2023-03-17T12:27:05.269Z,22.35
2023-03-17T12:30:03.134Z,22.35
2023-03-17T12:33:00.967Z,22.35
2023-03-17T12:35:48.132Z,22.36
2023-03-17T12:38:43.533Z,22.36
2023-03-17T12:42:10.276Z,22.35
2023-03-17T12:45:15.895Z,22.34
2023-03-17T12:48:24.140Z,22.33
2023-03-17T12:51:29.102Z,22.33
2023-03-17T12:54:28.157Z,22.34
2023-03-17T12:57:27.590Z,22.34
2023-03-17T13:00:37.531Z,22.35
2023-03-17T13:03:30.792Z,22.37
2023-03-17T13:06:21.606Z,22.39
2023-03-17T13:09:31.614Z,22.40
2023-03-17T13:12:38.437Z,22.40
2023-03-17T13:15:25.374Z,22.39
2023-03-17T13:18:18.633Z,22.36
2023-03-17T13:21:06.047Z,22.32
2023-03-17T13:24:16.310Z,22.27
2023-03-17T13:27:04.867Z,22.23
2023-03-17T13:29:53.672Z,22.20
2023-03-17T13:32:40.858Z,22.18
2023-03-17T13:35:41.907Z,22.18
2023-03-17T13:38:35.035Z,22.18
2023-03-17T13:41:46.819Z,22.19
2023-03-17T13:44:51.868Z,22.19
2023-03-17T13:47:44.432Z,22.19
2023-03-17T13:50:33.008Z,22.20
2023-03-17T13:53:27.869Z,22.19
2023-03-17T13:56:20.455Z,22.18
2023-03-17T13:59:14.601Z,22.17
2023-03-17T14:02:16.937Z,22.16
2023-03-17T14:05:27.177Z,22.14
2023-03-17T14:08:21.829Z,22.13
2023-03-17T14:11:22.384Z,22.12
2023-03-17T14:14:26.029Z,22.10
2023-03-17T14:17:51.169Z,22.08
2023-03-17T14:20:37.983Z,22.06
2023-03-17T14:23:26.343Z,22.02
2023-03-17T14:26:13.153Z,21.98
2023-03-17T14:29:02.772Z,21.93
2023-03-17T14:31:53.026Z,21.87
2023-03-17T14:34:48.877Z,21.82
2023-03-17T14:37:37.723Z,21.77
2023-03-17T14:40:28.439Z,21.74
2023-03-17T14:43:16.720Z,21.71
2023-03-17T14:46:12.823Z,21.69
2023-03-17T14:49:14.540Z,21.65
2023-03-17T14:52:02.795Z,21.61
2023-03-17T14:54:53.625Z,21.57
2023-03-17T14:57:40.434Z,21.53
2023-03-17T15:00:38.051Z,21.50
2023-03-17T15:03:29.792Z,21.46
2023-03-17T15:06:26.848Z,21.46
2023-03-17T15:09:20.004Z,21.47
2023-03-17T15:12:19.447Z,21.52
2023-03-17T15:15:22.719Z,21.55
2023-03-17T15:18:17.710Z,21.58
2023-03-17T15:21:05.030Z,21.61
2023-03-17T15:23:52.141Z,21.63
2023-03-17T15:26:39.054Z,21.65
2023-03-17T15:29:26.371Z,21.68
2023-03-17T15:32:16.696Z,21.70
2023-03-17T15:35:03.763Z,21.73
2023-03-17T15:37:51.121Z,21.75
2023-03-17T15:40:38.129Z,21.74
2023-03-17T15:43:24.751Z,21.70
2023-03-17T15:46:31.729Z,21.64
2023-03-17T15:49:18.848Z,21.58
2023-03-17T15:52:14.360Z,21.53
2023-03-17T15:55:01.374Z,21.49
2023-03-17T15:57:54.752Z,21.49
2023-03-17T16:00:42.988Z,21.52
2023-03-17T16:03:37.799Z,21.55
2023-03-17T16:06:24.692Z,21.58
2023-03-17T16:09:16.980Z,21.60
2023-03-17T16:12:04.652Z,21.63
2023-03-17T16:14:51.671Z,21.65
2023-03-17T16:17:38.805Z,21.68
2023-03-17T16:20:27.448Z,21.70
2023-03-17T16:23:17.711Z,21.72
2023-03-17T16:26:14.717Z,21.73
2023-03-17T16:29:02.417Z,21.74
2023-03-17T16:31:50.939Z,21.74
2023-03-17T16:34:37.784Z,21.75
2023-03-17T16:37:25.013Z,21.75
2023-03-17T16:40:21.972Z,21.75
2023-03-17T16:43:38.088Z,21.77
2023-03-17T16:46:26.950Z,21.79
2023-03-17T16:49:19.272Z,21.80
2023-03-17T16:52:06.475Z,21.82
2023-03-17T16:54:53.698Z,21.83
2023-03-17T16:57:43.292Z,21.85
2023-03-17T17:00:31.413Z,21.87
2023-03-17T17:03:19.200Z,21.89
2023-03-17T17:06:07.244Z,21.91
2023-03-17T17:08:54.331Z,21.94
2023-03-17T17:11:41.224Z,21.97
2023-03-17T17:14:28.549Z,22.00
2023-03-17T17:17:15.566Z,22.04
2023-03-17T17:20:02.286Z,22.07
2023-03-17T17:22:49.905Z,22.11
2023-03-17T17:25:36.924Z,22.14
2023-03-17T17:28:24.955Z,22.18
2023-03-17T17:31:11.886Z,22.22
2023-03-17T17:33:58.682Z,22.26
2023-03-17T17:36:46.034Z,22.30
2023-03-17T17:39:32.866Z,22.34
2023-03-17T17:42:21.060Z,22.37
2023-03-17T17:45:09.307Z,22.39
2023-03-17T17:47:56.544Z,22.42
2023-03-17T17:50:45.459Z,22.44
2023-03-17T17:53:32.713Z,22.45
2023-03-17T17:56:19.934Z,22.46
2023-03-17T17:59:07.256Z,22.48
2023-03-17T18:01:54.364Z,22.48
2023-03-17T18:04:42.418Z,22.49
2023-03-17T18:07:30.045Z,22.48
2023-03-17T18:10:26.018Z,22.48
2023-03-17T18:13:12.773Z,22.48
2023-03-17T18:16:01.445Z,22.48
2023-03-17T18:18:48.461Z,22.48
2023-03-17T18:21:36.655Z,22.47
2023-03-17T18:24:24.326Z,22.46
2023-03-17T18:27:11.990Z,22.46
2023-03-17T18:29:59.985Z,22.45
2023-03-17T18:32:49.729Z,22.44
2023-03-17T18:35:37.536Z,22.43
2023-03-17T18:38:25.339Z,22.41
2023-03-17T18:41:12.792Z,22.40
2023-03-17T18:43:59.782Z,22.39
2023-03-17T18:46:46.491Z,22.37
2023-03-17T18:49:33.705Z,22.35
2023-03-17T18:52:21.231Z,22.32
2023-03-17T18:55:10.193Z,22.30
2023-03-17T18:57:57.423Z,22.28
2023-03-17T19:00:44.399Z,22.25
2023-03-17T19:03:32.546Z,22.23
2023-03-17T19:06:21.645Z,22.20
2023-03-17T19:09:11.724Z,22.17
2023-03-17T19:11:59.666Z,22.15
2023-03-17T19:14:46.481Z,22.12
2023-03-17T19:17:33.596Z,22.09
2023-03-17T19:20:20.512Z,22.07
2023-03-17T19:23:08.134Z,22.04
2023-03-17T19:25:55.260Z,22.00
2023-03-17T19:28:42.388Z,21.98
2023-03-17T19:31:29.349Z,21.94
2023-03-17T19:34:16.626Z,21.91
2023-03-17T19:37:04.106Z,21.89
2023-03-17T19:39:51.263Z,21.85
2023-03-17T19:42:38.378Z,21.82
2023-03-17T19:45:26.227Z,21.79
2023-03-17T19:48:12.815Z,21.75
2023-03-17T19:51:00.458Z,21.72
2023-03-17T19:53:47.366Z,21.69
2023-03-17T19:56:34.488Z,21.66
2023-03-17T19:59:21.420Z,21.64
2023-03-17T20:02:08.838Z,21.60
2023-03-17T20:04:55.994Z,21.57
2023-03-17T20:07:42.781Z,21.55
2023-03-17T20:10:29.906Z,21.52
2023-03-17T20:13:17.314Z,21.49
2023-03-17T20:16:05.942Z,21.46
2023-03-17T20:18:52.650Z,21.43
2023-03-17T20:21:40.281Z,21.40
2023-03-17T20:24:31.513Z,21.38
2023-03-17T20:27:18.520Z,21.35
2023-03-17T20:30:08.513Z,21.32
2023-03-17T20:32:55.373Z,21.28
2023-03-17T20:35:44.811Z,21.26
2023-03-17T20:38:39.006Z,21.23
2023-03-17T20:41:26.187Z,21.20
2023-03-17T20:44:13.834Z,21.16
2023-03-17T20:47:00.844Z,21.14
2023-03-17T20:49:48.984Z,21.11
2023-03-17T20:52:41.223Z,21.08
2023-03-17T20:55:28.546Z,21.05
2023-03-17T20:58:16.145Z,21.03
2023-03-17T21:01:03.695Z,20.99
2023-03-17T21:03:51.730Z,20.96
2023-03-17T21:06:39.790Z,20.93
2023-03-17T21:09:26.793Z,20.90
2023-03-17T21:12:16.431Z,20.87
2023-03-17T21:15:03.793Z,20.84
2023-03-17T21:17:50.679Z,20.81
2023-03-17T21:20:37.735Z,20.78
2023-03-17T21:23:24.748Z,20.75
2023-03-17T21:26:13.798Z,20.72
2023-03-17T21:29:00.840Z,20.70
2023-03-17T21:31:48.007Z,20.67
2023-03-17T21:34:35.982Z,20.63
2023-03-17T21:37:22.655Z,20.61
2023-03-17T21:40:13.649Z,20.58
2023-03-17T21:43:01.019Z,20.56
2023-03-17T21:45:48.728Z,20.53
2023-03-17T21:48:35.566Z,20.50
2023-03-17T21:51:22.817Z,20.47
2023-03-17T21:54:10.738Z,20.45
2023-03-17T21:56:58.507Z,20.42
2023-03-17T21:59:45.785Z,20.39
2023-03-17T22:02:32.999Z,20.36
2023-03-17T22:05:19.921Z,20.34
2023-03-17T22:08:06.785Z,20.31
2023-03-17T22:10:54.057Z,20.28
2023-03-17T22:13:41.581Z,20.26
2023-03-17T22:16:28.938Z,20.23
2023-03-17T22:19:19.309Z,20.20
2023-03-17T22:22:08.566Z,20.18
2023-03-17T22:24:56.631Z,20.16
2023-03-17T22:27:43.930Z,20.13
2023-03-17T22:30:30.884Z,20.10
2023-03-17T22:33:18.366Z,20.07
2023-03-17T22:36:06.361Z,20.05
2023-03-17T22:38:54.771Z,20.02
2023-03-17T22:41:41.777Z,19.99
2023-03-17T22:44:28.696Z,19.97
2023-03-17T22:47:15.801Z,19.95
2023-03-17T22:50:02.929Z,19.92
2023-03-17T22:52:50.048Z,19.90
2023-03-17T22:55:37.158Z,19.87
2023-03-17T22:58:24.900Z,19.85
2023-03-17T23:01:13.640Z,19.82
2023-03-17T23:04:01.309Z,19.80
2023-03-17T23:06:49.127Z,19.77
2023-03-17T23:09:38.702Z,19.74
2023-03-17T23:12:28.295Z,19.72
2023-03-17T23:15:15.166Z,19.69
2023-03-17T23:18:02.562Z,19.66
2023-03-17T23:20:50.558Z,19.63
2023-03-17T23:23:38.808Z,19.61
2023-03-17T23:26:26.755Z,19.58
2023-03-17T23:29:13.455Z,19.55
2023-03-17T23:32:00.974Z,19.51
2023-03-17T23:34:47.952Z,19.50
2023-03-17T23:37:36.415Z,19.47
2023-03-17T23:40:23.852Z,19.44
2023-03-17T23:43:10.657Z,19.42
2023-03-17T23:45:57.717Z,19.40
2023-03-17T23:48:44.698Z,19.37
2023-03-17T23:51:31.167Z,19.35
2023-03-17T23:54:17.916Z,19.32
2023-03-17T23:57:05.176Z,19.30
2023-03-17T23:59:52.673Z,19.28
